sensor_id;sensor_type;location;lat;lon;timestamp;P1;durP1;ratioP1;P2;durP2;ratioP2
50555;SDS011;36508;52.512;13.450;2023-05-24T00:00:07;8.13;;;3.73;;
50555;SDS011;36508;52.512;13.450;2023-05-24T00:03:17;7.83;;;4.70;;
50555;SDS011;36508;52.512;13.450;2023-05-24T00:09:51;9.80;;;4.37;;
50555;SDS011;36508;52.512;13.450;2023-05-24T00:16:05;9.13;;;2.87;;
50555;SDS011;36508;52.512;13.450;2023-05-24T00:22:18;4.93;;;2.50;;
50555;SDS011;36508;52.512;13.450;2023-05-24T00:25:04;8.93;;;4.37;;
50555;SDS011;36508;52.512;13.450;2023-05-24T00:31:00;10.20;;;3.33;;
50555;SDS011;36508;52.512;13.450;2023-05-24T00:33:29;11.20;;;3.17;;
50555;SDS011;36508;52.512;13.450;2023-05-24T00:36:01;6.87;;;3.30;;
50555;SDS011;36508;52.512;13.450;2023-05-24T00:38:41;3.70;;;2.27;;
50555;SDS011;36508;52.512;13.450;2023-05-24T00:41:12;7.53;;;3.00;;
50555;SDS011;36508;52.512;13.450;2023-05-24T00:43:55;17.10;;;4.33;;
50555;SDS011;36508;52.512;13.450;2023-05-24T00:46:38;4.40;;;3.07;;
50555;SDS011;36508;52.512;13.450;2023-05-24T00:51:58;10.20;;;4.40;;
50555;SDS011;36508;52.512;13.450;2023-05-24T00:57:22;8.70;;;2.90;;
50555;SDS011;36508;52.512;13.450;2023-05-24T01:02:53;9.13;;;4.00;;
50555;SDS011;36508;52.512;13.450;2023-05-24T01:05:46;8.30;;;2.47;;
50555;SDS011;36508;52.512;13.450;2023-05-24T01:11:37;7.57;;;2.97;;
50555;SDS011;36508;52.512;13.450;2023-05-24T01:14:25;5.00;;;2.30;;
50555;SDS011;36508;52.512;13.450;2023-05-24T01:25:19;9.23;;;3.53;;
50555;SDS011;36508;52.512;13.450;2023-05-24T01:28:06;11.30;;;3.53;;
50555;SDS011;36508;52.512;13.450;2023-05-24T01:30:39;10.60;;;2.93;;
50555;SDS011;36508;52.512;13.450;2023-05-24T01:33:32;6.73;;;3.37;;
50555;SDS011;36508;52.512;13.450;2023-05-24T01:36:16;9.83;;;4.33;;
50555;SDS011;36508;52.512;13.450;2023-05-24T01:38:47;3.10;;;2.43;;
50555;SDS011;36508;52.512;13.450;2023-05-24T01:50:32;11.10;;;3.30;;
50555;SDS011;36508;52.512;13.450;2023-05-24T01:53:03;5.67;;;3.77;;
50555;SDS011;36508;52.512;13.450;2023-05-24T01:55:55;9.00;;;2.70;;
50555;SDS011;36508;52.512;13.450;2023-05-24T01:58:25;12.83;;;4.10;;
50555;SDS011;36508;52.512;13.450;2023-05-24T02:00:56;9.40;;;3.20;;
50555;SDS011;36508;52.512;13.450;2023-05-24T02:03:24;4.07;;;2.40;;
50555;SDS011;36508;52.512;13.450;2023-05-24T02:06:20;4.40;;;3.30;;
50555;SDS011;36508;52.512;13.450;2023-05-24T02:08:53;8.17;;;3.30;;
50555;SDS011;36508;52.512;13.450;2023-05-24T02:11:47;13.37;;;3.50;;
50555;SDS011;36508;52.512;13.450;2023-05-24T02:14:22;10.10;;;2.77;;
50555;SDS011;36508;52.512;13.450;2023-05-24T02:16:53;12.00;;;3.50;;
50555;SDS011;36508;52.512;13.450;2023-05-24T02:19:28;10.77;;;3.10;;
50555;SDS011;36508;52.512;13.450;2023-05-24T02:22:07;6.03;;;3.03;;
50555;SDS011;36508;52.512;13.450;2023-05-24T02:24:42;7.60;;;3.57;;
50555;SDS011;36508;52.512;13.450;2023-05-24T02:29:54;10.20;;;3.93;;
50555;SDS011;36508;52.512;13.450;2023-05-24T02:32:25;5.57;;;3.33;;
50555;SDS011;36508;52.512;13.450;2023-05-24T02:35:01;13.87;;;4.27;;
50555;SDS011;36508;52.512;13.450;2023-05-24T02:37:43;10.20;;;3.60;;
50555;SDS011;36508;52.512;13.450;2023-05-24T02:40:11;7.40;;;3.83;;
50555;SDS011;36508;52.512;13.450;2023-05-24T02:42:45;8.47;;;4.63;;
50555;SDS011;36508;52.512;13.450;2023-05-24T02:45:28;9.67;;;3.53;;
50555;SDS011;36508;52.512;13.450;2023-05-24T02:48:00;8.33;;;3.53;;
50555;SDS011;36508;52.512;13.450;2023-05-24T02:50:29;6.50;;;3.40;;
50555;SDS011;36508;52.512;13.450;2023-05-24T02:53:05;9.77;;;3.33;;
50555;SDS011;36508;52.512;13.450;2023-05-24T02:55:35;6.33;;;3.03;;
50555;SDS011;36508;52.512;13.450;2023-05-24T02:58:13;6.93;;;2.23;;
50555;SDS011;36508;52.512;13.450;2023-05-24T03:00:41;7.80;;;3.47;;
50555;SDS011;36508;52.512;13.450;2023-05-24T03:03:07;4.77;;;2.93;;
50555;SDS011;36508;52.512;13.450;2023-05-24T03:05:33;5.33;;;2.80;;
50555;SDS011;36508;52.512;13.450;2023-05-24T03:08:17;6.50;;;2.70;;
50555;SDS011;36508;52.512;13.450;2023-05-24T03:10:57;9.27;;;2.83;;
50555;SDS011;36508;52.512;13.450;2023-05-24T03:13:22;7.80;;;3.00;;
50555;SDS011;36508;52.512;13.450;2023-05-24T03:15:51;6.87;;;4.07;;
50555;SDS011;36508;52.512;13.450;2023-05-24T03:18:21;8.00;;;4.23;;
50555;SDS011;36508;52.512;13.450;2023-05-24T03:20:47;11.87;;;5.37;;
50555;SDS011;36508;52.512;13.450;2023-05-24T03:23:12;13.10;;;4.20;;
50555;SDS011;36508;52.512;13.450;2023-05-24T03:25:40;8.43;;;3.77;;
50555;SDS011;36508;52.512;13.450;2023-05-24T03:28:15;12.43;;;3.53;;
50555;SDS011;36508;52.512;13.450;2023-05-24T03:30:48;11.13;;;4.83;;
50555;SDS011;36508;52.512;13.450;2023-05-24T03:33:19;12.17;;;4.33;;
50555;SDS011;36508;52.512;13.450;2023-05-24T03:35:45;10.77;;;3.30;;
50555;SDS011;36508;52.512;13.450;2023-05-24T03:38:29;12.90;;;3.47;;
50555;SDS011;36508;52.512;13.450;2023-05-24T03:41:17;16.60;;;4.40;;
50555;SDS011;36508;52.512;13.450;2023-05-24T03:43:51;9.07;;;3.53;;
50555;SDS011;36508;52.512;13.450;2023-05-24T03:46:19;17.60;;;5.40;;
50555;SDS011;36508;52.512;13.450;2023-05-24T03:48:45;11.60;;;3.57;;
50555;SDS011;36508;52.512;13.450;2023-05-24T03:51:19;10.70;;;3.87;;
50555;SDS011;36508;52.512;13.450;2023-05-24T03:54:07;4.83;;;3.13;;
50555;SDS011;36508;52.512;13.450;2023-05-24T03:57:04;7.60;;;3.13;;
50555;SDS011;36508;52.512;13.450;2023-05-24T03:59:35;12.97;;;4.13;;
50555;SDS011;36508;52.512;13.450;2023-05-24T04:02:04;11.43;;;4.30;;
50555;SDS011;36508;52.512;13.450;2023-05-24T04:04:35;7.33;;;3.10;;
50555;SDS011;36508;52.512;13.450;2023-05-24T04:07:04;9.00;;;3.03;;
50555;SDS011;36508;52.512;13.450;2023-05-24T04:09:44;12.23;;;4.40;;
50555;SDS011;36508;52.512;13.450;2023-05-24T04:12:19;8.80;;;4.00;;
50555;SDS011;36508;52.512;13.450;2023-05-24T04:18:00;9.30;;;3.37;;
50555;SDS011;36508;52.512;13.450;2023-05-24T04:20:29;9.33;;;3.70;;
50555;SDS011;36508;52.512;13.450;2023-05-24T04:23:21;13.77;;;3.27;;
50555;SDS011;36508;52.512;13.450;2023-05-24T04:26:12;11.17;;;5.23;;
50555;SDS011;36508;52.512;13.450;2023-05-24T04:29:07;14.17;;;4.87;;
50555;SDS011;36508;52.512;13.450;2023-05-24T04:32:01;7.00;;;3.93;;
50555;SDS011;36508;52.512;13.450;2023-05-24T04:38:37;7.17;;;3.50;;
50555;SDS011;36508;52.512;13.450;2023-05-24T04:41:32;9.40;;;5.63;;
50555;SDS011;36508;52.512;13.450;2023-05-24T04:44:17;7.00;;;3.33;;
50555;SDS011;36508;52.512;13.450;2023-05-24T04:46:46;7.53;;;4.80;;
50555;SDS011;36508;52.512;13.450;2023-05-24T04:49:14;7.43;;;3.00;;
50555;SDS011;36508;52.512;13.450;2023-05-24T04:51:42;8.03;;;3.67;;
50555;SDS011;36508;52.512;13.450;2023-05-24T04:54:16;11.87;;;3.13;;
50555;SDS011;36508;52.512;13.450;2023-05-24T04:56:45;7.13;;;6.13;;
50555;SDS011;36508;52.512;13.450;2023-05-24T04:59:10;7.67;;;3.60;;
50555;SDS011;36508;52.512;13.450;2023-05-24T05:01:37;9.73;;;4.63;;
50555;SDS011;36508;52.512;13.450;2023-05-24T05:04:03;14.57;;;4.63;;
50555;SDS011;36508;52.512;13.450;2023-05-24T05:06:29;4.53;;;3.40;;
50555;SDS011;36508;52.512;13.450;2023-05-24T05:09:02;9.47;;;3.77;;
50555;SDS011;36508;52.512;13.450;2023-05-24T05:11:29;12.10;;;3.50;;
50555;SDS011;36508;52.512;13.450;2023-05-24T05:13:55;5.77;;;3.30;;
50555;SDS011;36508;52.512;13.450;2023-05-24T05:16:21;14.07;;;6.07;;
50555;SDS011;36508;52.512;13.450;2023-05-24T05:18:46;7.33;;;4.43;;
50555;SDS011;36508;52.512;13.450;2023-05-24T05:21:12;13.43;;;5.43;;
50555;SDS011;36508;52.512;13.450;2023-05-24T05:23:37;12.10;;;4.73;;
50555;SDS011;36508;52.512;13.450;2023-05-24T05:26:03;9.63;;;4.40;;
50555;SDS011;36508;52.512;13.450;2023-05-24T05:28:31;7.13;;;4.77;;
50555;SDS011;36508;52.512;13.450;2023-05-24T05:30:56;10.07;;;4.30;;
50555;SDS011;36508;52.512;13.450;2023-05-24T05:33:22;8.30;;;5.30;;
50555;SDS011;36508;52.512;13.450;2023-05-24T05:35:48;15.00;;;4.70;;
50555;SDS011;36508;52.512;13.450;2023-05-24T05:38:14;18.00;;;7.23;;
50555;SDS011;36508;52.512;13.450;2023-05-24T05:40:40;12.90;;;5.17;;
50555;SDS011;36508;52.512;13.450;2023-05-24T05:43:05;13.33;;;5.17;;
50555;SDS011;36508;52.512;13.450;2023-05-24T05:45:33;15.70;;;5.20;;
50555;SDS011;36508;52.512;13.450;2023-05-24T05:47:59;18.70;;;6.00;;
50555;SDS011;36508;52.512;13.450;2023-05-24T05:50:24;11.13;;;5.73;;
50555;SDS011;36508;52.512;13.450;2023-05-24T05:52:50;20.20;;;5.90;;
50555;SDS011;36508;52.512;13.450;2023-05-24T05:55:15;17.70;;;5.70;;
50555;SDS011;36508;52.512;13.450;2023-05-24T05:57:41;16.70;;;6.30;;
50555;SDS011;36508;52.512;13.450;2023-05-24T06:00:07;18.70;;;5.80;;
50555;SDS011;36508;52.512;13.450;2023-05-24T06:02:34;13.70;;;5.50;;
50555;SDS011;36508;52.512;13.450;2023-05-24T06:04:59;12.73;;;5.43;;
50555;SDS011;36508;52.512;13.450;2023-05-24T06:07:25;11.57;;;5.30;;
50555;SDS011;36508;52.512;13.450;2023-05-24T06:09:50;12.23;;;6.67;;
50555;SDS011;36508;52.512;13.450;2023-05-24T06:12:16;14.27;;;5.60;;
50555;SDS011;36508;52.512;13.450;2023-05-24T06:14:43;26.00;;;7.63;;
50555;SDS011;36508;52.512;13.450;2023-05-24T06:17:09;20.47;;;4.80;;
50555;SDS011;36508;52.512;13.450;2023-05-24T06:19:35;14.60;;;5.67;;
50555;SDS011;36508;52.512;13.450;2023-05-24T06:22:00;15.33;;;5.03;;
50555;SDS011;36508;52.512;13.450;2023-05-24T06:24:26;10.33;;;5.03;;
50555;SDS011;36508;52.512;13.450;2023-05-24T06:26:52;12.33;;;5.30;;
50555;SDS011;36508;52.512;13.450;2023-05-24T06:29:18;14.20;;;8.00;;
50555;SDS011;36508;52.512;13.450;2023-05-24T06:31:45;18.13;;;5.27;;
50555;SDS011;36508;52.512;13.450;2023-05-24T06:34:14;16.00;;;5.20;;
50555;SDS011;36508;52.512;13.450;2023-05-24T06:36:41;20.53;;;7.67;;
50555;SDS011;36508;52.512;13.450;2023-05-24T06:39:11;14.53;;;6.33;;
50555;SDS011;36508;52.512;13.450;2023-05-24T06:41:37;9.27;;;4.67;;
50555;SDS011;36508;52.512;13.450;2023-05-24T06:44:03;16.00;;;6.20;;
50555;SDS011;36508;52.512;13.450;2023-05-24T06:46:29;14.60;;;5.90;;
50555;SDS011;36508;52.512;13.450;2023-05-24T06:48:55;14.93;;;5.97;;
50555;SDS011;36508;52.512;13.450;2023-05-24T06:51:20;14.53;;;6.27;;
50555;SDS011;36508;52.512;13.450;2023-05-24T06:53:46;13.77;;;5.80;;
50555;SDS011;36508;52.512;13.450;2023-05-24T06:56:12;16.83;;;5.83;;
50555;SDS011;36508;52.512;13.450;2023-05-24T06:58:37;18.43;;;6.77;;
50555;SDS011;36508;52.512;13.450;2023-05-24T07:01:05;17.80;;;6.13;;
50555;SDS011;36508;52.512;13.450;2023-05-24T07:03:33;13.23;;;6.33;;
50555;SDS011;36508;52.512;13.450;2023-05-24T07:06:02;12.47;;;5.60;;
50555;SDS011;36508;52.512;13.450;2023-05-24T07:08:28;11.77;;;5.47;;
50555;SDS011;36508;52.512;13.450;2023-05-24T07:10:53;14.60;;;4.87;;
50555;SDS011;36508;52.512;13.450;2023-05-24T07:13:25;15.93;;;6.37;;
50555;SDS011;36508;52.512;13.450;2023-05-24T07:15:51;11.53;;;6.73;;
50555;SDS011;36508;52.512;13.450;2023-05-24T07:18:17;23.20;;;6.53;;
50555;SDS011;36508;52.512;13.450;2023-05-24T07:20:42;12.57;;;5.60;;
50555;SDS011;36508;52.512;13.450;2023-05-24T07:23:08;15.80;;;6.00;;
50555;SDS011;36508;52.512;13.450;2023-05-24T07:25:34;10.60;;;5.60;;
50555;SDS011;36508;52.512;13.450;2023-05-24T07:27:59;14.90;;;6.97;;
50555;SDS011;36508;52.512;13.450;2023-05-24T07:30:25;17.63;;;7.47;;
50555;SDS011;36508;52.512;13.450;2023-05-24T07:32:51;26.07;;;8.40;;
50555;SDS011;36508;52.512;13.450;2023-05-24T07:35:17;18.23;;;7.17;;
50555;SDS011;36508;52.512;13.450;2023-05-24T07:37:42;19.30;;;5.67;;
50555;SDS011;36508;52.512;13.450;2023-05-24T07:40:08;10.40;;;6.60;;
50555;SDS011;36508;52.512;13.450;2023-05-24T07:42:39;19.57;;;7.47;;
50555;SDS011;36508;52.512;13.450;2023-05-24T07:45:05;18.27;;;8.20;;
50555;SDS011;36508;52.512;13.450;2023-05-24T07:47:33;19.23;;;7.83;;
50555;SDS011;36508;52.512;13.450;2023-05-24T07:49:58;12.97;;;7.97;;
50555;SDS011;36508;52.512;13.450;2023-05-24T07:52:25;11.17;;;6.83;;
50555;SDS011;36508;52.512;13.450;2023-05-24T07:54:51;15.03;;;6.70;;
50555;SDS011;36508;52.512;13.450;2023-05-24T07:57:17;12.57;;;8.60;;
50555;SDS011;36508;52.512;13.450;2023-05-24T07:59:43;14.80;;;8.60;;
50555;SDS011;36508;52.512;13.450;2023-05-24T08:02:09;15.60;;;8.07;;
50555;SDS011;36508;52.512;13.450;2023-05-24T08:04:35;17.43;;;8.97;;
50555;SDS011;36508;52.512;13.450;2023-05-24T08:07:02;18.10;;;8.37;;
50555;SDS011;36508;52.512;13.450;2023-05-24T08:09:29;20.13;;;8.40;;
50555;SDS011;36508;52.512;13.450;2023-05-24T08:11:57;14.77;;;7.50;;
50555;SDS011;36508;52.512;13.450;2023-05-24T08:14:23;22.67;;;9.37;;
50555;SDS011;36508;52.512;13.450;2023-05-24T08:16:48;24.63;;;7.63;;
50555;SDS011;36508;52.512;13.450;2023-05-24T08:19:14;12.73;;;6.60;;
50555;SDS011;36508;52.512;13.450;2023-05-24T08:21:39;13.20;;;8.10;;
50555;SDS011;36508;52.512;13.450;2023-05-24T08:24:06;13.40;;;6.73;;
50555;SDS011;36508;52.512;13.450;2023-05-24T08:26:32;14.33;;;7.07;;
50555;SDS011;36508;52.512;13.450;2023-05-24T08:28:57;20.33;;;6.93;;
50555;SDS011;36508;52.512;13.450;2023-05-24T08:31:23;15.17;;;7.00;;
50555;SDS011;36508;52.512;13.450;2023-05-24T08:33:48;14.20;;;6.50;;
50555;SDS011;36508;52.512;13.450;2023-05-24T08:36:16;12.50;;;6.60;;
50555;SDS011;36508;52.512;13.450;2023-05-24T08:38:41;17.33;;;8.03;;
50555;SDS011;36508;52.512;13.450;2023-05-24T08:41:09;14.53;;;6.80;;
50555;SDS011;36508;52.512;13.450;2023-05-24T08:43:36;11.20;;;6.50;;
50555;SDS011;36508;52.512;13.450;2023-05-24T08:46:02;12.53;;;5.80;;
50555;SDS011;36508;52.512;13.450;2023-05-24T08:48:28;14.47;;;8.17;;
50555;SDS011;36508;52.512;13.450;2023-05-24T08:50:55;9.57;;;6.70;;
50555;SDS011;36508;52.512;13.450;2023-05-24T08:53:21;11.87;;;5.60;;
50555;SDS011;36508;52.512;13.450;2023-05-24T08:55:51;12.53;;;6.30;;
50555;SDS011;36508;52.512;13.450;2023-05-24T08:58:21;12.33;;;6.60;;
50555;SDS011;36508;52.512;13.450;2023-05-24T09:00:47;16.40;;;7.23;;
50555;SDS011;36508;52.512;13.450;2023-05-24T09:03:12;8.13;;;6.00;;
50555;SDS011;36508;52.512;13.450;2023-05-24T09:05:38;9.90;;;6.70;;
50555;SDS011;36508;52.512;13.450;2023-05-24T09:08:05;22.40;;;8.20;;
50555;SDS011;36508;52.512;13.450;2023-05-24T09:10:32;15.83;;;7.57;;
50555;SDS011;36508;52.512;13.450;2023-05-24T09:12:58;17.00;;;7.67;;
50555;SDS011;36508;52.512;13.450;2023-05-24T09:15:26;22.80;;;10.40;;
50555;SDS011;36508;52.512;13.450;2023-05-24T09:17:51;11.97;;;5.63;;
50555;SDS011;36508;52.512;13.450;2023-05-24T09:20:17;13.27;;;5.47;;
50555;SDS011;36508;52.512;13.450;2023-05-24T09:22:43;10.83;;;4.90;;
50555;SDS011;36508;52.512;13.450;2023-05-24T09:25:12;9.93;;;4.40;;
50555;SDS011;36508;52.512;13.450;2023-05-24T09:27:38;9.13;;;5.57;;
50555;SDS011;36508;52.512;13.450;2023-05-24T09:30:10;12.60;;;6.87;;
50555;SDS011;36508;52.512;13.450;2023-05-24T09:32:36;16.13;;;5.97;;
50555;SDS011;36508;52.512;13.450;2023-05-24T09:35:02;9.03;;;6.43;;
50555;SDS011;36508;52.512;13.450;2023-05-24T09:37:33;13.47;;;9.00;;
50555;SDS011;36508;52.512;13.450;2023-05-24T09:40:00;15.40;;;6.43;;
50555;SDS011;36508;52.512;13.450;2023-05-24T09:42:26;9.40;;;6.00;;
50555;SDS011;36508;52.512;13.450;2023-05-24T09:45:02;9.87;;;5.90;;
50555;SDS011;36508;52.512;13.450;2023-05-24T09:47:31;13.90;;;5.30;;
50555;SDS011;36508;52.512;13.450;2023-05-24T09:49:59;14.03;;;5.97;;
50555;SDS011;36508;52.512;13.450;2023-05-24T09:52:25;14.33;;;6.37;;
50555;SDS011;36508;52.512;13.450;2023-05-24T09:54:51;12.17;;;5.97;;
50555;SDS011;36508;52.512;13.450;2023-05-24T09:57:17;13.70;;;5.60;;
50555;SDS011;36508;52.512;13.450;2023-05-24T09:59:43;8.43;;;5.03;;
50555;SDS011;36508;52.512;13.450;2023-05-24T10:02:09;21.10;;;6.57;;
50555;SDS011;36508;52.512;13.450;2023-05-24T10:04:36;8.33;;;5.70;;
50555;SDS011;36508;52.512;13.450;2023-05-24T10:07:02;11.20;;;6.87;;
50555;SDS011;36508;52.512;13.450;2023-05-24T10:09:29;15.50;;;6.93;;
50555;SDS011;36508;52.512;13.450;2023-05-24T10:12:00;6.70;;;5.73;;
50555;SDS011;36508;52.512;13.450;2023-05-24T10:14:36;14.87;;;6.87;;
50555;SDS011;36508;52.512;13.450;2023-05-24T10:17:05;9.00;;;5.17;;
50555;SDS011;36508;52.512;13.450;2023-05-24T10:19:35;5.53;;;3.70;;
50555;SDS011;36508;52.512;13.450;2023-05-24T10:22:04;9.20;;;6.40;;
50555;SDS011;36508;52.512;13.450;2023-05-24T10:24:32;12.90;;;6.47;;
50555;SDS011;36508;52.512;13.450;2023-05-24T10:27:03;11.90;;;5.10;;
50555;SDS011;36508;52.512;13.450;2023-05-24T10:32:15;10.47;;;5.00;;
50555;SDS011;36508;52.512;13.450;2023-05-24T10:34:44;7.33;;;4.37;;
50555;SDS011;36508;52.512;13.450;2023-05-24T10:37:10;14.10;;;5.20;;
50555;SDS011;36508;52.512;13.450;2023-05-24T10:39:36;6.23;;;5.00;;
50555;SDS011;36508;52.512;13.450;2023-05-24T10:42:05;13.07;;;6.83;;
50555;SDS011;36508;52.512;13.450;2023-05-24T10:44:31;9.20;;;4.90;;
50555;SDS011;36508;52.512;13.450;2023-05-24T10:47:10;9.00;;;4.60;;
50555;SDS011;36508;52.512;13.450;2023-05-24T10:49:46;14.60;;;5.03;;
50555;SDS011;36508;52.512;13.450;2023-05-24T10:52:12;7.20;;;4.33;;
50555;SDS011;36508;52.512;13.450;2023-05-24T10:54:38;9.13;;;4.90;;
50555;SDS011;36508;52.512;13.450;2023-05-24T10:57:05;7.07;;;5.30;;
50555;SDS011;36508;52.512;13.450;2023-05-24T10:59:35;13.80;;;4.83;;
50555;SDS011;36508;52.512;13.450;2023-05-24T11:02:09;8.27;;;4.60;;
50555;SDS011;36508;52.512;13.450;2023-05-24T11:04:39;10.23;;;5.97;;
50555;SDS011;36508;52.512;13.450;2023-05-24T11:07:07;9.80;;;4.60;;
50555;SDS011;36508;52.512;13.450;2023-05-24T11:09:37;12.37;;;7.20;;
50555;SDS011;36508;52.512;13.450;2023-05-24T11:12:20;8.60;;;4.10;;
50555;SDS011;36508;52.512;13.450;2023-05-24T11:14:50;5.80;;;3.60;;
50555;SDS011;36508;52.512;13.450;2023-05-24T11:17:20;5.27;;;4.80;;
50555;SDS011;36508;52.512;13.450;2023-05-24T11:19:58;13.20;;;5.27;;
50555;SDS011;36508;52.512;13.450;2023-05-24T11:22:37;7.50;;;4.33;;
50555;SDS011;36508;52.512;13.450;2023-05-24T11:25:37;6.80;;;4.30;;
50555;SDS011;36508;52.512;13.450;2023-05-24T11:28:09;9.83;;;5.87;;
50555;SDS011;36508;52.512;13.450;2023-05-24T11:30:51;8.73;;;4.40;;
50555;SDS011;36508;52.512;13.450;2023-05-24T11:33:25;12.53;;;6.63;;
50555;SDS011;36508;52.512;13.450;2023-05-24T11:36:12;6.60;;;4.40;;
50555;SDS011;36508;52.512;13.450;2023-05-24T11:38:43;7.70;;;3.93;;
50555;SDS011;36508;52.512;13.450;2023-05-24T11:41:16;7.93;;;4.23;;
50555;SDS011;36508;52.512;13.450;2023-05-24T11:43:45;6.00;;;5.23;;
50555;SDS011;36508;52.512;13.450;2023-05-24T11:46:17;16.80;;;8.50;;
50555;SDS011;36508;52.512;13.450;2023-05-24T11:51:46;9.10;;;7.50;;
50555;SDS011;36508;52.512;13.450;2023-05-24T11:54:23;11.30;;;5.57;;
50555;SDS011;36508;52.512;13.450;2023-05-24T11:56:52;8.27;;;5.20;;
50555;SDS011;36508;52.512;13.450;2023-05-24T11:59:25;5.73;;;3.50;;
50555;SDS011;36508;52.512;13.450;2023-05-24T12:04:44;8.47;;;4.40;;
50555;SDS011;36508;52.512;13.450;2023-05-24T12:07:15;7.47;;;3.10;;
50555;SDS011;36508;52.512;13.450;2023-05-24T12:09:41;7.03;;;3.73;;
50555;SDS011;36508;52.512;13.450;2023-05-24T12:12:18;9.47;;;4.13;;
50555;SDS011;36508;52.512;13.450;2023-05-24T12:14:54;5.20;;;3.60;;
50555;SDS011;36508;52.512;13.450;2023-05-24T12:17:23;10.20;;;5.17;;
50555;SDS011;36508;52.512;13.450;2023-05-24T12:23:07;11.57;;;4.17;;
50555;SDS011;36508;52.512;13.450;2023-05-24T12:25:33;5.63;;;4.23;;
50555;SDS011;36508;52.512;13.450;2023-05-24T12:28:04;6.00;;;3.50;;
50555;SDS011;36508;52.512;13.450;2023-05-24T12:30:30;5.77;;;3.40;;
50555;SDS011;36508;52.512;13.450;2023-05-24T12:33:05;9.17;;;4.53;;
50555;SDS011;36508;52.512;13.450;2023-05-24T12:35:47;5.57;;;4.20;;
50555;SDS011;36508;52.512;13.450;2023-05-24T12:38:14;5.77;;;4.07;;
50555;SDS011;36508;52.512;13.450;2023-05-24T12:40:56;8.70;;;4.97;;
50555;SDS011;36508;52.512;13.450;2023-05-24T12:43:25;12.00;;;4.17;;
50555;SDS011;36508;52.512;13.450;2023-05-24T12:45:51;8.40;;;4.07;;
50555;SDS011;36508;52.512;13.450;2023-05-24T12:48:20;13.07;;;5.03;;
50555;SDS011;36508;52.512;13.450;2023-05-24T12:50:46;8.03;;;4.60;;
50555;SDS011;36508;52.512;13.450;2023-05-24T12:53:22;5.53;;;4.30;;
50555;SDS011;36508;52.512;13.450;2023-05-24T12:55:54;6.00;;;3.73;;
50555;SDS011;36508;52.512;13.450;2023-05-24T12:58:36;14.10;;;5.30;;
50555;SDS011;36508;52.512;13.450;2023-05-24T13:01:13;8.37;;;3.97;;
50555;SDS011;36508;52.512;13.450;2023-05-24T13:03:57;5.50;;;3.70;;
50555;SDS011;36508;52.512;13.450;2023-05-24T13:06:35;5.57;;;4.50;;
50555;SDS011;36508;52.512;13.450;2023-05-24T13:09:05;7.30;;;4.37;;
50555;SDS011;36508;52.512;13.450;2023-05-24T13:11:31;17.43;;;7.10;;
50555;SDS011;36508;52.512;13.450;2023-05-24T13:13:59;7.80;;;6.73;;
50555;SDS011;36508;52.512;13.450;2023-05-24T13:16:29;5.20;;;4.27;;
50555;SDS011;36508;52.512;13.450;2023-05-24T13:18:55;5.77;;;3.00;;
50555;SDS011;36508;52.512;13.450;2023-05-24T13:21:26;4.37;;;3.80;;
50555;SDS011;36508;52.512;13.450;2023-05-24T13:23:55;8.77;;;4.50;;
50555;SDS011;36508;52.512;13.450;2023-05-24T13:26:21;6.30;;;4.43;;
50555;SDS011;36508;52.512;13.450;2023-05-24T13:28:54;6.20;;;4.00;;
50555;SDS011;36508;52.512;13.450;2023-05-24T13:31:35;3.73;;;3.40;;
50555;SDS011;36508;52.512;13.450;2023-05-24T13:34:04;7.93;;;4.33;;
50555;SDS011;36508;52.512;13.450;2023-05-24T13:36:31;8.10;;;4.10;;
50555;SDS011;36508;52.512;13.450;2023-05-24T13:38:58;10.00;;;5.00;;
50555;SDS011;36508;52.512;13.450;2023-05-24T13:41:24;7.80;;;5.30;;
50555;SDS011;36508;52.512;13.450;2023-05-24T13:43:50;5.83;;;3.73;;
50555;SDS011;36508;52.512;13.450;2023-05-24T13:46:43;7.93;;;4.30;;
50555;SDS011;36508;52.512;13.450;2023-05-24T13:49:07;7.67;;;3.80;;
50555;SDS011;36508;52.512;13.450;2023-05-24T13:51:34;4.90;;;4.40;;
50555;SDS011;36508;52.512;13.450;2023-05-24T13:54:11;6.47;;;4.10;;
50555;SDS011;36508;52.512;13.450;2023-05-24T13:56:48;10.80;;;4.70;;
50555;SDS011;36508;52.512;13.450;2023-05-24T13:59:23;7.97;;;5.13;;
50555;SDS011;36508;52.512;13.450;2023-05-24T14:01:52;4.23;;;3.50;;
50555;SDS011;36508;52.512;13.450;2023-05-24T14:04:33;6.00;;;4.20;;
50555;SDS011;36508;52.512;13.450;2023-05-24T14:07:09;6.37;;;3.83;;
50555;SDS011;36508;52.512;13.450;2023-05-24T14:09:40;7.20;;;5.67;;
50555;SDS011;36508;52.512;13.450;2023-05-24T14:12:06;7.73;;;3.67;;
50555;SDS011;36508;52.512;13.450;2023-05-24T14:14:36;8.53;;;3.90;;
50555;SDS011;36508;52.512;13.450;2023-05-24T14:17:31;10.10;;;4.87;;
50555;SDS011;36508;52.512;13.450;2023-05-24T14:19:58;11.17;;;5.47;;
50555;SDS011;36508;52.512;13.450;2023-05-24T14:22:24;8.53;;;3.83;;
50555;SDS011;36508;52.512;13.450;2023-05-24T14:24:52;5.53;;;4.27;;
50555;SDS011;36508;52.512;13.450;2023-05-24T14:27:21;9.90;;;4.80;;
50555;SDS011;36508;52.512;13.450;2023-05-24T14:29:47;14.80;;;7.03;;
50555;SDS011;36508;52.512;13.450;2023-05-24T14:32:12;11.97;;;5.10;;
50555;SDS011;36508;52.512;13.450;2023-05-24T14:34:41;9.43;;;5.23;;
50555;SDS011;36508;52.512;13.450;2023-05-24T14:37:11;5.60;;;5.00;;
50555;SDS011;36508;52.512;13.450;2023-05-24T14:39:44;15.07;;;5.30;;
50555;SDS011;36508;52.512;13.450;2023-05-24T14:42:10;9.53;;;4.10;;
50555;SDS011;36508;52.512;13.450;2023-05-24T14:44:39;7.53;;;4.70;;
50555;SDS011;36508;52.512;13.450;2023-05-24T14:47:05;4.47;;;4.07;;
50555;SDS011;36508;52.512;13.450;2023-05-24T14:49:32;8.70;;;5.70;;
50555;SDS011;36508;52.512;13.450;2023-05-24T14:51:58;10.33;;;5.47;;
50555;SDS011;36508;52.512;13.450;2023-05-24T14:54:29;12.10;;;5.10;;
50555;SDS011;36508;52.512;13.450;2023-05-24T14:56:55;9.97;;;6.13;;
50555;SDS011;36508;52.512;13.450;2023-05-24T14:59:25;6.10;;;4.17;;
50555;SDS011;36508;52.512;13.450;2023-05-24T15:01:53;8.90;;;4.70;;
50555;SDS011;36508;52.512;13.450;2023-05-24T15:04:25;6.67;;;5.60;;
50555;SDS011;36508;52.512;13.450;2023-05-24T15:06:52;14.70;;;13.07;;
50555;SDS011;36508;52.512;13.450;2023-05-24T15:09:17;16.43;;;14.30;;
50555;SDS011;36508;52.512;13.450;2023-05-24T15:11:43;13.90;;;10.73;;
50555;SDS011;36508;52.512;13.450;2023-05-24T15:14:14;9.97;;;7.93;;
50555;SDS011;36508;52.512;13.450;2023-05-24T15:16:40;6.93;;;6.30;;
50555;SDS011;36508;52.512;13.450;2023-05-24T15:19:08;7.07;;;6.40;;
50555;SDS011;36508;52.512;13.450;2023-05-24T15:21:34;8.90;;;4.90;;
50555;SDS011;36508;52.512;13.450;2023-05-24T15:24:09;6.90;;;5.20;;
50555;SDS011;36508;52.512;13.450;2023-05-24T15:26:52;8.63;;;4.80;;
50555;SDS011;36508;52.512;13.450;2023-05-24T15:29:40;10.37;;;6.47;;
50555;SDS011;36508;52.512;13.450;2023-05-24T15:32:13;18.00;;;8.10;;
50555;SDS011;36508;52.512;13.450;2023-05-24T15:34:42;11.77;;;6.00;;
50555;SDS011;36508;52.512;13.450;2023-05-24T15:37:23;9.10;;;5.00;;
50555;SDS011;36508;52.512;13.450;2023-05-24T15:40:12;13.67;;;5.10;;
50555;SDS011;36508;52.512;13.450;2023-05-24T15:42:45;4.97;;;4.43;;
50555;SDS011;36508;52.512;13.450;2023-05-24T15:45:58;7.27;;;4.23;;
50555;SDS011;36508;52.512;13.450;2023-05-24T15:48:44;6.07;;;3.70;;
50555;SDS011;36508;52.512;13.450;2023-05-24T15:51:22;7.30;;;4.73;;
50555;SDS011;36508;52.512;13.450;2023-05-24T15:54:19;5.53;;;4.20;;
50555;SDS011;36508;52.512;13.450;2023-05-24T15:56:54;11.30;;;5.33;;